.
WxDataArchive / Data Records for 2009-03-07
2009-03-06 March 2009 2009-03-08

Data Records for Saturday, 07 March 2009

Time	Temp	Chill	HIndex	Humid	Dewpt	 Wind 	HiWind	WindDir	Rain 	Barom 
-----	----	-----	------	-----	-----	------	------	-------	-----	----- 
00:00	53.2	53.2	53.2	54	37.0	0	0	---	0.00	30.059 
00:05	53.2	53.2	53.2	54	37.0	0	0	---	0.00	30.063 
00:10	53.1	53.1	53.1	55	37.4	0	1	0	0.00	30.059 
00:15	53.1	53.1	53.1	55	37.4	0	1	0	0.00	30.059 
00:20	52.9	52.9	52.9	55	37.2	0	0	---	0.00	30.060 
00:25	52.9	52.9	52.9	54	36.7	0	1	0	0.00	30.061 
00:30	52.8	52.8	52.8	55	37.1	0	0	---	0.00	30.061 
00:35	52.8	52.8	52.8	55	37.1	0	1	0	0.00	30.060 
00:40	52.6	52.6	52.6	55	36.9	0	0	---	0.00	30.058 
00:45	52.6	52.6	52.6	55	36.9	0	0	---	0.00	30.059 
00:50	52.5	52.5	52.5	55	36.8	0	1	0	0.00	30.058 
00:55	52.5	52.5	52.5	55	36.8	0	1	0	0.00	30.057 
01:00	52.3	52.3	52.3	55	36.6	0	2	0	0.00	30.061 
01:05	52.3	52.3	52.3	55	36.6	0	1	0	0.00	30.060 
01:10	52.3	52.3	52.3	55	36.6	0	1	0	0.00	30.059 
01:15	52.2	52.2	52.2	56	37.0	1	3	0	0.00	30.057 
01:20	52.2	52.2	52.2	56	37.0	0	2	45	0.00	30.057 
01:25	52.2	52.2	52.2	56	37.0	1	4	45	0.00	30.050 
01:30	52.0	52.0	52.0	56	36.8	1	3	45	0.00	30.048 
01:35	52.0	52.0	52.0	57	37.2	1	3	22	0.00	30.048 
01:40	51.9	51.9	51.9	56	36.7	1	3	22	0.00	30.044 
01:45	51.9	51.9	51.9	56	36.7	0	3	22	0.00	30.046 
01:50	51.9	51.9	51.9	56	36.7	1	3	45	0.00	30.046 
01:55	51.9	51.9	51.9	57	37.1	2	5	90	0.00	30.044 
02:00	51.7	51.7	51.7	58	37.4	1	4	90	0.00	30.042 
02:05	51.6	51.6	51.6	58	37.3	1	4	112	0.00	30.040 
02:10	51.4	51.4	51.4	58	37.1	1	4	90	0.00	30.039 
02:15	51.4	51.4	51.4	58	37.1	2	4	112	0.00	30.041 
02:20	51.4	51.4	51.4	58	37.1	1	4	112	0.00	30.042 
02:25	51.4	51.4	51.4	58	37.1	1	4	112	0.00	30.042 
02:30	51.3	51.3	51.3	58	37.0	1	3	112	0.00	30.041 
02:35	51.3	51.3	51.3	59	37.5	1	3	112	0.00	30.042 
02:40	51.1	51.1	51.1	59	37.3	1	3	112	0.00	30.043 
02:45	51.1	51.1	51.1	60	37.7	0	2	112	0.00	30.041 
02:50	51.0	51.0	51.0	60	37.6	0	2	112	0.00	30.038 
02:55	51.0	51.0	51.0	61	38.0	0	2	112	0.00	30.034 
03:00	50.8	50.8	50.8	61	37.8	1	3	112	0.00	30.027 
03:05	50.7	50.7	50.7	61	37.7	1	3	112	0.00	30.024 
03:10	50.7	50.7	50.7	61	37.7	1	3	112	0.00	30.024 
03:15	50.7	50.7	50.7	61	37.7	1	3	112	0.00	30.022 
03:20	50.7	50.7	50.7	61	37.7	0	2	112	0.00	30.020 
03:25	50.7	50.7	50.7	62	38.2	0	1	112	0.00	30.019 
03:30	50.7	50.7	50.7	62	38.2	0	1	112	0.00	30.017 
03:35	50.5	50.5	50.5	62	38.0	0	1	112	0.00	30.014 
03:40	50.7	50.7	50.7	61	37.7	1	3	112	0.00	30.008 
03:45	50.8	50.8	50.8	61	37.8	1	3	112	0.00	30.009 
03:50	50.8	50.8	50.8	60	37.4	1	2	112	0.00	30.008 
03:55	51.0	51.0	51.0	60	37.6	1	2	112	0.00	30.002 
04:00	51.0	51.0	51.0	60	37.6	1	3	112	0.00	29.998 
04:05	51.0	51.0	51.0	60	37.6	1	3	112	0.00	29.998 
04:10	51.0	51.0	51.0	60	37.6	1	4	112	0.00	29.993 
04:15	51.0	51.0	51.0	60	37.6	1	3	112	0.00	29.993 
04:20	50.8	50.8	50.8	60	37.4	1	3	112	0.00	29.993 
04:25	50.8	50.8	50.8	61	37.8	0	2	112	0.00	30.003 
04:30	50.8	50.8	50.8	61	37.8	0	2	112	0.00	30.005 
04:35	50.7	50.7	50.7	62	38.2	0	1	112	0.00	30.008 
04:40	50.7	50.7	50.7	62	38.2	0	0	---	0.00	30.011 
04:45	50.5	50.5	50.5	63	38.4	0	0	---	0.00	30.022 
04:50	50.4	50.4	50.4	64	38.7	0	1	112	0.00	30.024 
04:55	50.4	50.4	50.4	65	39.1	0	1	112	0.00	30.026 
05:00	50.2	50.2	50.2	65	38.9	0	1	112	0.00	30.025 
05:05	50.1	50.1	50.1	65	38.8	1	5	112	0.00	30.017 
05:10	50.1	50.1	50.1	65	38.8	1	3	112	0.00	30.011 
05:15	49.9	49.9	49.9	66	39.0	0	2	112	0.00	30.016 
05:20	49.8	49.8	49.8	67	39.3	1	3	112	0.00	30.007 
05:25	49.8	49.8	49.8	67	39.3	0	3	112	0.00	30.014 
05:30	49.6	49.6	49.6	68	39.5	0	3	112	0.00	30.014 
05:35	49.6	49.6	49.6	69	39.9	2	4	90	0.00	30.009 
05:40	49.5	49.5	49.5	69	39.8	2	3	90	0.00	30.002 
05:45	49.4	49.4	49.4	69	39.7	1	3	90	0.00	30.002 
05:50	49.4	49.4	49.4	69	39.7	1	3	90	0.00	30.006 
05:55	49.4	49.4	49.4	70	40.0	1	3	135	0.00	30.003 
06:00	49.2	49.2	49.2	70	39.8	1	3	90	0.00	30.007 
06:05	49.2	49.2	49.2	70	39.8	1	3	90	0.00	30.004 
06:10	49.2	49.2	49.2	71	40.2	1	2	90	0.00	29.999 
06:15	49.2	49.2	49.2	71	40.2	1	3	90	0.00	29.985 
06:20	49.1	49.1	49.1	71	40.1	0	2	90	0.00	29.982 
06:25	49.1	49.1	49.1	72	40.5	0	2	90	0.00	29.980 
06:30	48.9	48.9	48.9	72	40.3	1	2	90	0.00	29.977 
06:35	48.9	48.9	48.9	73	40.6	1	2	90	0.00	29.972 
06:40	48.9	48.9	48.9	73	40.6	1	3	90	0.00	29.978 
06:45	49.1	49.1	49.1	74	41.2	0	2	90	0.00	29.975 
06:50	48.9	48.9	48.9	74	41.0	0	1	90	0.00	29.971 
06:55	48.9	48.9	48.9	74	41.0	0	1	90	0.00	29.980 
07:00	48.9	48.9	48.9	75	41.3	0	1	90	0.00	29.981 
07:05	48.9	48.9	48.9	75	41.3	0	1	90	0.00	29.994 
07:10	48.9	48.9	48.9	75	41.3	0	1	90	0.00	29.969 
07:15	48.9	48.9	48.9	76	41.7	0	1	90	0.00	29.986 
07:20	48.9	48.9	48.9	78	42.3	0	0	---	0.00	29.994 
07:25	48.9	48.9	48.9	79	42.7	0	0	---	0.00	29.985 
07:30	48.8	48.8	48.8	80	42.9	1	2	90	0.00	29.969 
07:35	48.6	48.6	48.6	81	43.0	1	2	90	0.00	29.965 
07:40	48.5	48.5	48.5	81	42.9	1	3	90	0.00	29.964 
07:45	48.5	48.5	48.5	81	42.9	2	4	90	0.00	29.954 
07:50	48.5	48.5	48.5	81	42.9	2	4	90	0.00	29.953 
07:55	48.5	48.5	48.5	81	42.9	1	3	90	0.00	29.951 
08:00	48.5	48.5	48.5	81	42.9	1	2	90	0.00	29.952 
08:05	48.6	48.6	48.6	82	43.4	1	2	90	0.00	29.954 
08:10	48.8	48.8	48.8	82	43.6	1	4	90	0.00	29.945 
08:15	48.9	48.9	48.9	82	43.6	1	4	90	0.00	29.944 
08:20	49.1	49.1	49.1	83	44.2	1	3	90	0.00	29.946 
08:25	49.2	49.2	49.2	83	44.3	1	4	90	0.00	29.945 
08:30	49.4	49.4	49.4	83	44.5	1	3	90	0.00	29.942 
08:35	49.6	49.6	49.6	84	45.0	0	1	90	0.00	29.941 
08:40	49.9	49.9	49.9	85	45.6	0	1	90	0.00	29.943 
08:45	50.4	50.4	50.4	85	46.1	1	2	90	0.00	29.941 
08:50	50.7	50.7	50.7	84	46.0	1	2	90	0.00	29.941 
08:55	51.0	51.0	51.0	84	46.3	0	1	90	0.00	29.948 
09:00	51.3	51.3	51.3	84	46.6	0	1	90	0.00	29.949 
09:05	51.7	51.7	51.7	85	47.3	0	2	90	0.00	29.952 
09:10	52.0	52.0	52.0	86	47.9	0	1	90	0.00	29.952 
09:15	52.3	52.3	52.3	86	48.2	0	1	90	0.00	29.952 
09:20	52.6	52.6	52.6	86	48.5	0	1	90	0.00	29.950 
09:25	52.9	52.9	52.9	86	48.8	0	1	90	0.00	29.951 
09:30	53.1	53.1	53.1	86	49.0	0	0	---	0.00	29.950 
09:35	53.2	53.2	53.2	86	49.1	0	1	90	0.00	29.947 
09:40	53.5	53.5	53.5	86	49.4	0	1	90	0.00	29.946 
09:45	53.6	53.6	53.6	86	49.5	0	1	90	0.00	29.942 
09:50	53.9	53.9	53.9	86	49.8	0	1	90	0.00	29.943 
09:55	54.2	54.2	54.2	86	50.1	0	2	90	0.00	29.942 
10:00	54.5	54.5	54.5	86	50.4	0	1	90	0.00	29.937 
10:05	54.8	54.8	54.8	85	50.4	0	1	90	0.00	29.937 
10:10	55.1	55.1	55.1	85	50.7	0	1	90	0.00	29.941 
10:15	55.3	55.3	55.3	85	50.9	0	2	90	0.00	29.935 
10:20	55.4	55.4	55.4	85	51.0	0	1	90	0.00	29.929 
10:25	55.7	55.7	55.7	85	51.3	0	2	90	0.00	29.924 
10:30	56.3	56.3	56.3	86	52.2	0	2	90	0.00	29.918 
10:35	57.2	57.2	57.2	87	53.4	1	4	90	0.00	29.917 
10:40	58.0	58.0	58.0	86	53.8	1	4	292	0.00	29.915 
10:45	58.3	58.3	58.3	85	53.8	1	6	248	0.00	29.908 
10:50	58.6	58.6	58.6	85	54.1	1	6	68	0.00	29.903 
10:55	59.0	59.0	59.0	85	54.5	1	3	338	0.00	29.897 
11:00	59.5	59.5	59.5	84	54.7	2	7	270	0.00	29.898 
11:05	59.9	59.9	59.9	83	54.7	2	5	270	0.00	29.899 
11:10	60.2	60.2	60.2	82	54.7	3	10	248	0.00	29.901 
11:15	60.1	60.1	60.1	82	54.6	3	11	248	0.00	29.900 
11:20	60.1	60.1	60.1	82	54.6	3	10	248	0.00	29.899 
11:25	60.1	60.1	60.1	83	54.9	4	12	248	0.00	29.890 
11:30	60.4	60.4	60.4	82	54.9	3	12	248	0.00	29.885 
11:35	60.5	60.5	60.5	82	55.0	4	10	270	0.00	29.880 
11:40	60.9	60.9	60.9	81	55.0	2	7	248	0.00	29.877 
11:45	61.2	61.2	61.2	81	55.3	3	11	248	0.00	29.882 
11:50	61.3	61.3	61.3	80	55.1	4	11	270	0.00	29.891 
11:55	61.3	61.3	61.3	79	54.7	5	13	248	0.00	29.884 
12:00	61.3	61.3	61.3	79	54.7	4	12	248	0.00	29.887 
12:05	61.6	61.6	61.6	79	55.0	3	10	248	0.00	29.884 
12:10	61.8	61.8	61.8	79	55.2	3	7	248	0.00	29.882 
12:15	62.1	62.1	62.1	78	55.2	4	9	248	0.00	29.877 
12:20	62.3	62.3	62.3	77	55.0	3	8	270	0.00	29.875 
12:25	62.7	62.7	62.7	77	55.4	3	9	248	0.00	29.873 
12:30	63.2	63.2	63.2	76	55.5	4	10	248	0.00	29.871 
12:35	63.4	63.4	63.4	76	55.7	3	8	248	0.00	29.868 
12:40	63.9	63.9	63.9	75	55.8	4	10	248	0.00	29.866 
12:45	64.3	64.3	64.3	75	56.2	4	10	270	0.00	29.864 
12:50	64.7	64.7	64.7	74	56.2	3	9	248	0.00	29.863 
12:55	65.0	65.0	65.0	74	56.5	2	5	270	0.00	29.863 
13:00	65.2	65.2	65.2	73	56.3	2	4	248	0.00	29.863 
13:05	65.2	65.2	65.2	73	56.3	3	6	248	0.00	29.859 
13:10	65.3	65.3	65.3	73	56.4	2	6	248	0.00	29.852 
13:15	65.6	65.6	65.6	72	56.3	3	10	248	0.00	29.848 
13:20	66.0	66.0	66.0	72	56.7	3	11	248	0.00	29.846 
13:25	66.4	66.4	66.4	71	56.7	3	9	248	0.00	29.838 
13:30	67.1	67.1	67.1	70	57.0	2	7	248	0.00	29.831 
13:35	67.8	67.8	67.8	69	57.2	3	7	248	0.00	29.829 
13:40	68.4	68.4	68.4	68	57.4	3	10	248	0.00	29.826 
13:45	68.6	68.6	68.6	67	57.2	4	11	248	0.00	29.827 
13:50	68.8	68.8	68.8	67	57.4	4	11	270	0.00	29.829 
13:55	68.8	68.8	68.8	67	57.4	4	11	248	0.00	29.827 
14:00	68.6	68.6	68.6	67	57.2	3	10	248	0.00	29.824 
14:05	68.6	68.6	68.6	67	57.2	2	6	248	0.00	29.821 
14:10	68.9	68.9	68.9	67	57.5	2	5	270	0.00	29.817 
14:15	69.3	69.3	69.3	66	57.4	2	7	248	0.00	29.813 
14:20	69.3	69.3	69.3	65	57.0	4	12	248	0.00	29.810 
14:25	69.3	69.3	69.3	65	57.0	4	12	270	0.00	29.813 
14:30	69.1	69.1	69.1	65	56.8	4	13	248	0.00	29.812 
14:35	69.1	69.1	69.1	64	56.4	5	12	248	0.00	29.809 
14:40	69.3	69.3	69.3	64	56.6	4	11	248	0.00	29.806 
14:45	69.3	69.3	69.3	64	56.6	3	10	248	0.00	29.804 
14:50	69.4	69.4	69.4	64	56.7	4	9	248	0.00	29.798 
14:55	69.9	69.9	69.9	63	56.7	3	11	248	0.00	29.799 
15:00	69.9	69.9	69.9	63	56.7	3	7	248	0.00	29.798 
15:05	69.8	69.8	69.8	62	56.2	6	14	248	0.00	29.798 
15:10	69.4	69.4	69.4	63	56.2	4	11	248	0.00	29.799 
15:15	69.3	69.3	69.3	63	56.2	6	15	248	0.00	29.805 
15:20	69.1	69.1	69.1	63	56.0	6	12	248	0.00	29.803 
15:25	69.1	69.1	69.1	63	56.0	4	12	248	0.00	29.803 
15:30	69.1	69.1	69.1	63	56.0	5	10	270	0.00	29.806 
15:35	69.1	69.1	69.1	63	56.0	3	11	248	0.00	29.809 
15:40	69.1	69.1	69.1	63	56.0	4	9	270	0.00	29.806 
15:45	68.9	68.9	68.9	63	55.8	2	9	248	0.00	29.807 
15:50	68.9	68.9	68.9	63	55.8	3	10	248	0.00	29.808 
15:55	68.8	68.8	68.8	63	55.7	2	5	270	0.00	29.810 
16:00	68.9	68.9	68.9	62	55.3	5	12	270	0.00	29.811 
16:05	68.8	68.8	68.8	62	55.2	3	9	270	0.00	29.806 
16:10	68.8	68.8	68.8	63	55.7	2	4	270	0.00	29.814 
16:15	67.8	67.8	67.8	65	55.6	2	5	248	0.00	29.809 
16:20	67.3	67.3	67.3	67	56.0	1	5	248	0.00	29.801 
16:25	66.9	66.9	66.9	68	56.0	1	3	248	0.00	29.801 
16:30	66.6	66.6	66.6	69	56.1	1	3	248	0.00	29.798 
16:35	66.3	66.3	66.3	70	56.2	0	2	225	0.00	29.799 
16:40	66.0	66.0	66.0	71	56.3	1	2	225	0.00	29.802 
16:45	65.6	65.6	65.6	71	55.9	1	3	225	0.00	29.801 
16:50	65.3	65.3	65.3	72	56.0	0	2	225	0.00	29.801 
16:55	65.2	65.2	65.2	73	56.3	0	1	225	0.00	29.802 
17:00	65.0	65.0	65.0	73	56.1	1	3	225	0.00	29.802 
17:05	65.0	65.0	65.0	73	56.1	1	3	248	0.00	29.803 
17:10	64.8	64.8	64.8	73	55.9	1	3	248	0.00	29.802 
17:15	64.7	64.7	64.7	73	55.8	0	2	248	0.00	29.805 
17:20	64.5	64.5	64.5	73	55.6	0	3	248	0.00	29.803 
17:25	64.5	64.5	64.5	74	56.0	0	2	248	0.00	29.803 
17:30	64.3	64.3	64.3	74	55.8	0	1	248	0.00	29.805 
17:35	64.2	64.2	64.2	74	55.7	0	1	248	0.00	29.806 
17:40	64.2	64.2	64.2	74	55.7	0	3	248	0.00	29.805 
17:45	64.0	64.0	64.0	74	55.5	1	3	248	0.00	29.806 
17:50	64.0	64.0	64.0	74	55.5	0	1	248	0.00	29.802 
17:55	63.9	63.9	63.9	74	55.4	0	2	248	0.00	29.806 
18:00	63.9	63.9	63.9	74	55.4	0	1	248	0.00	29.807 
18:05	63.7	63.7	63.7	74	55.3	0	1	248	0.00	29.806 
18:10	63.7	63.7	63.7	74	55.3	0	2	248	0.00	29.805 
18:15	63.5	63.5	63.5	74	55.1	0	1	248	0.00	29.804 
18:20	63.5	63.5	63.5	74	55.1	0	1	248	0.00	29.799 
18:25	63.4	63.4	63.4	74	55.0	0	1	248	0.00	29.793 
18:30	63.4	63.4	63.4	74	55.0	0	1	248	0.00	29.789 
18:35	63.4	63.4	63.4	73	54.6	1	4	248	0.00	29.799 
18:40	63.5	63.5	63.5	73	54.7	1	3	248	0.00	29.796 
18:45	63.9	63.9	63.9	71	54.3	1	5	270	0.00	29.803 
18:50	64.0	64.0	64.0	70	54.0	1	4	248	0.00	29.802 
18:55	64.2	64.2	64.2	69	53.8	1	4	248	0.00	29.790 
19:00	64.3	64.3	64.3	68	53.5	1	4	248	0.00	29.803 
19:05	64.7	64.7	64.7	66	53.1	2	4	248	0.00	29.802 
19:10	65.0	65.0	65.0	64	52.5	2	5	248	0.00	29.800 
19:15	65.5	65.5	65.5	63	52.6	2	10	248	0.00	29.804 
19:20	66.0	66.0	66.0	62	52.6	3	9	248	0.00	29.806 
19:25	66.4	66.4	66.4	60	52.1	4	9	270	0.00	29.813 
19:30	66.6	66.6	66.6	60	52.3	3	9	248	0.00	29.811 
19:35	66.6	66.6	66.6	61	52.7	2	9	248	0.00	29.817 
19:40	66.4	66.4	66.4	62	53.0	2	6	248	0.00	29.819 
19:45	65.0	65.0	65.0	68	54.2	2	5	315	0.00	29.829 
19:50	63.2	63.2	63.2	73	54.4	2	5	270	0.01	29.820 
19:55	61.8	61.8	61.8	78	54.9	2	5	270	0.01	29.839 
20:00	60.9	60.9	60.9	81	55.0	2	4	270	0.00	29.843 
20:05	60.5	60.5	60.5	83	55.3	3	5	248	0.00	29.849 
20:10	60.2	60.2	60.2	84	55.3	2	5	270	0.00	29.853 
20:15	60.1	60.1	60.1	84	55.2	1	4	315	0.00	29.855 
20:20	59.3	59.3	59.3	84	54.5	2	5	292	0.00	29.864 
20:25	58.0	58.0	58.0	85	53.5	3	10	292	0.01	29.874 
20:30	55.9	55.9	55.9	86	51.8	5	11	315	0.02	29.893 
20:35	54.7	54.7	54.7	88	51.2	3	9	292	0.03	29.902 
20:40	53.6	53.6	53.6	89	50.4	3	10	315	0.02	29.905 
20:45	52.9	52.9	52.9	90	50.0	4	11	292	0.02	29.907 
20:50	52.3	52.3	52.3	91	49.8	3	7	315	0.03	29.921 
20:55	52.0	52.0	52.0	92	49.7	2	5	292	0.04	29.922 
21:00	51.1	51.1	51.1	92	48.9	3	11	315	0.03	29.919 
21:05	50.7	50.7	50.7	92	48.5	2	8	270	0.03	29.911 
21:10	50.5	50.5	50.5	92	48.3	1	4	270	0.01	29.913 
21:15	50.5	50.5	50.5	93	48.6	1	4	315	0.01	29.915 
21:20	50.4	50.4	50.4	93	48.5	0	3	315	0.01	29.921 
21:25	50.2	50.2	50.2	93	48.3	1	2	338	0.01	29.922 
21:30	49.8	49.8	49.8	93	47.9	1	4	315	0.02	29.922 
21:35	49.5	49.5	49.5	93	47.6	1	4	315	0.04	29.916 
21:40	49.2	49.2	49.2	93	47.3	1	4	270	0.02	29.919 
21:45	49.1	49.1	49.1	94	47.4	0	2	270	0.01	29.922 
21:50	48.9	48.9	48.9	94	47.2	0	1	270	0.03	29.911 
21:55	48.9	48.9	48.9	94	47.2	0	1	270	0.02	29.917 
22:00	48.8	48.8	48.8	94	47.1	0	1	270	0.01	29.911 
22:05	48.8	48.8	48.8	94	47.1	0	0	---	0.02	29.910 
22:10	48.8	48.8	48.8	94	47.1	0	0	---	0.01	29.906 
22:15	48.8	48.8	48.8	94	47.1	0	0	---	0.01	29.904 
22:20	48.8	48.8	48.8	94	47.1	0	0	---	0.01	29.906 
22:25	48.6	48.6	48.6	95	47.2	0	1	270	0.01	29.904 
22:30	48.5	48.5	48.5	94	46.9	0	1	270	0.02	29.905 
22:35	48.3	48.3	48.3	95	46.9	0	0	---	0.00	29.906 
22:40	48.2	48.2	48.2	95	46.8	0	0	---	0.01	29.913 
22:45	48.2	48.2	48.2	95	46.8	0	0	---	0.00	29.913 
22:50	48.2	48.2	48.2	95	46.8	0	0	---	0.01	29.914 
22:55	48.0	48.0	48.0	95	46.6	0	0	---	0.01	29.911 
23:00	48.0	48.0	48.0	95	46.6	0	1	270	0.01	29.907 
23:05	48.0	48.0	48.0	95	46.6	0	0	---	0.00	29.913 
23:10	48.0	48.0	48.0	95	46.6	0	0	---	0.01	29.915 
23:15	48.0	48.0	48.0	95	46.6	0	1	270	0.01	29.916 
23:20	48.2	48.2	48.2	95	46.8	0	1	270	0.00	29.917 
23:25	48.2	48.2	48.2	95	46.8	0	1	270	0.00	29.914 
23:30	48.3	48.3	48.3	95	46.9	0	1	270	0.00	29.919 
23:35	48.3	48.3	48.3	95	46.9	0	0	---	0.01	29.920 
23:40	48.3	48.3	48.3	96	47.2	0	0	---	0.00	29.926 
23:45	48.3	48.3	48.3	95	46.9	0	0	---	0.00	29.926 
23:50	48.3	48.3	48.3	96	47.2	0	0	---	0.01	29.933 
23:55	48.3	48.3	48.3	96	47.2	0	0	---	0.00	29.924 

CoCoRaHS
IN-AL-39
A2 Web Hosting
Creative Commons License
GoDaddy
search engine by freefind advanced

loaded 2018-11-18 11:24:26 • last modified 2010-11-18 10:43:29
Privacy PolicyDisclaimer
• wx.awcolley.com is powered by PmWiki v.2002016 •
• all content (unless otherwise noted) © 2018 A W Colley